Time;durP1;ratioP1;P1;durP2;ratioP2;P2;SDS_P1;SDS_P2;PMS_P1;PMS_P2;Temp;Humidity;BMP_temperature;BMP_pressure;BME280_temperature;BME280_humidity;BME280_pressure;Samples;Min_cycle;Max_cycle;Signal;HPM_P1;HPM_P2
2022/03/13 00:00:04;;;;;;;37.53;16.20;;;;;;;-2.44;71.56;102094.06;1811605;79;21563;-65
2022/03/13 00:02:34;;;;;;;38.00;15.68;;;;;;;-2.46;71.46;102098.30;1810514;79;21140;-64
2022/03/13 00:05:03;;;;;;;41.05;15.65;;;;;;;-2.44;71.37;102091.48;1811845;79;21168;-64
2022/03/13 00:07:34;;;;;;;36.20;15.35;;;;;;;-2.42;70.96;102095.00;1811620;78;21078;-62
2022/03/13 00:10:02;;;;;;;28.17;14.38;;;;;;;-2.39;71.26;102091.25;1811563;79;21097;-63
2022/03/13 00:12:31;;;;;;;31.05;14.90;;;;;;;-2.37;71.15;102092.18;1811543;79;21161;-62
2022/03/13 00:15:10;;;;;;;36.70;15.28;;;;;;;-2.38;71.07;102086.58;1820137;78;21063;-67
2022/03/13 00:17:32;;;;;;;33.02;14.93;;;;;;;-2.37;71.00;102088.31;1822589;77;21070;-66
2022/03/13 00:20:03;;;;;;;32.23;15.55;;;;;;;-2.38;70.95;102086.58;1839893;77;21455;-65
2022/03/13 00:22:34;;;;;;;27.42;13.53;;;;;;;-2.41;70.94;102086.45;1851735;77;21526;-63
2022/03/13 00:25:05;;;;;;;36.28;15.08;;;;;;;-2.46;70.97;102084.11;1851843;77;21052;-63
2022/03/13 00:27:35;;;;;;;25.17;11.68;;;;;;;-2.48;71.03;102081.89;1851800;77;21056;-64
2022/03/13 00:30:05;;;;;;;32.23;14.18;;;;;;;-2.54;71.14;102084.27;1851827;77;21064;-65
2022/03/13 00:32:34;;;;;;;33.30;15.88;;;;;;;-2.61;71.27;102081.86;1851834;77;21052;-63
2022/03/13 00:35:04;;;;;;;37.38;15.75;;;;;;;-2.68;71.54;102080.30;1851877;77;21198;-62
2022/03/13 00:37:33;;;;;;;35.83;15.58;;;;;;;-2.69;71.74;102077.23;1861345;77;21054;-63
2022/03/13 00:40:01;;;;;;;36.10;16.05;;;;;;;-2.66;71.70;102083.80;1851528;77;21024;-65
2022/03/13 00:42:30;;;;;;;32.08;14.13;;;;;;;-2.65;71.76;102076.55;1847367;77;21060;-64
2022/03/13 00:44:59;;;;;;;35.48;15.75;;;;;;;-2.65;71.82;102076.55;1848018;77;21072;-64
2022/03/13 00:47:28;;;;;;;32.63;14.45;;;;;;;-2.65;71.90;102075.27;1847979;77;21249;-59
2022/03/13 00:49:56;;;;;;;36.83;14.63;;;;;;;-2.64;71.96;102075.70;1843464;77;21159;-58
2022/03/13 00:52:25;;;;;;;39.13;17.35;;;;;;;-2.61;71.90;102071.96;1835660;77;21129;-60
2022/03/13 00:54:54;;;;;;;36.93;16.70;;;;;;;-2.60;71.75;102076.28;1842579;77;21202;-60
2022/03/13 00:57:22;;;;;;;37.33;18.35;;;;;;;-2.68;71.87;102074.72;1848389;77;21052;-56
2022/03/13 00:59:51;;;;;;;34.05;16.37;;;;;;;-2.70;71.94;102071.63;1847643;77;21175;-58
2022/03/13 01:02:20;;;;;;;41.60;18.10;;;;;;;-2.74;71.98;102070.64;1851769;77;21067;-56
2022/03/13 01:04:50;;;;;;;37.80;15.70;;;;;;;-2.73;71.90;102073.28;1847770;77;21120;-60
2022/03/13 01:07:19;;;;;;;40.60;17.25;;;;;;;-2.70;71.81;102072.50;1851733;77;21072;-60
2022/03/13 01:09:48;;;;;;;42.45;18.85;;;;;;;-2.67;71.88;102080.74;1851696;77;21143;-61
2022/03/13 01:12:16;;;;;;;38.98;16.73;;;;;;;-2.64;71.94;102075.29;1851666;77;21066;-62
2022/03/13 01:14:47;;;;;;;35.23;14.70;;;;;;;-2.59;71.97;102084.50;1847183;77;21064;-60
2022/03/13 01:17:19;;;;;;;38.67;16.73;;;;;;;-2.56;71.89;102087.20;1841969;78;21131;-60
2022/03/13 01:19:48;;;;;;;28.55;12.95;;;;;;;-2.55;71.79;102086.36;1841974;78;21089;-60
2022/03/13 01:22:17;;;;;;;31.50;14.38;;;;;;;-2.52;71.73;102090.35;1841963;78;21495;-60
2022/03/13 01:24:46;;;;;;;28.67;13.28;;;;;;;-2.55;71.64;102087.65;1841848;78;21147;-63
2022/03/13 01:27:16;;;;;;;31.70;14.18;;;;;;;-2.57;71.65;102094.45;1841937;78;21504;-62
2022/03/13 01:29:45;;;;;;;32.28;15.23;;;;;;;-2.59;71.59;102092.23;1841808;78;21029;-63
2022/03/13 01:32:16;;;;;;;38.80;18.05;;;;;;;-2.60;71.58;102091.37;1832053;78;21060;-63
2022/03/13 01:34:48;;;;;;;43.00;17.15;;;;;;;-2.60;71.63;102090.08;1835556;78;21113;-61
2022/03/13 01:37:28;;;;;;;39.23;18.52;;;;;;;-2.58;71.69;102091.01;1840555;78;21035;-61
2022/03/13 01:40:01;;;;;;;35.98;17.73;;;;;;;-2.52;71.68;102092.93;1836147;78;21080;-59
2022/03/13 01:42:29;;;;;;;35.40;14.28;;;;;;;-2.48;71.60;102096.50;1830887;78;21075;-64
2022/03/13 01:44:59;;;;;;;34.92;14.75;;;;;;;-2.46;71.48;102099.59;1830366;78;21182;-63
2022/03/13 01:47:28;;;;;;;28.62;13.58;;;;;;;-2.47;71.37;102101.72;1833221;78;21475;-64
2022/03/13 01:49:57;;;;;;;31.90;14.70;;;;;;;-2.50;71.34;102101.59;1834368;78;21007;-63
2022/03/13 01:52:28;;;;;;;28.85;14.90;;;;;;;-2.51;71.31;102104.98;1829192;76;21053;-65
2022/03/13 01:54:58;;;;;;;31.50;13.43;;;;;;;-2.54;71.36;102110.05;1832725;78;21667;-63
2022/03/13 01:57:27;;;;;;;27.52;14.07;;;;;;;-2.57;71.35;102109.92;1830572;78;21277;-66
2022/03/13 01:59:59;;;;;;;27.75;13.25;;;;;;;-2.59;71.39;102114.16;1832114;78;21131;-65
2022/03/13 02:02:29;;;;;;;31.55;13.80;;;;;;;-2.62;70.77;102113.64;1839917;78;21106;-66
2022/03/13 02:04:58;;;;;;;22.37;10.53;;;;;;;-2.62;70.77;102113.64;1835595;78;21051;-68
2022/03/13 02:07:29;;;;;;;19.98;9.30;;;;;;;-2.61;71.41;102115.80;1835552;78;21063;-67
2022/03/13 02:09:58;;;;;;;25.65;11.12;;;;;;;-2.64;71.44;102115.26;1835658;78;21055;-67
2022/03/13 02:12:27;;;;;;;32.00;14.40;;;;;;;-2.67;71.52;102115.55;1869254;76;21039;-69
2022/03/13 02:14:56;;;;;;;30.70;13.48;;;;;;;-2.76;71.83;102128.58;1872889;76;21075;-70
2022/03/13 02:17:28;;;;;;;22.13;10.72;;;;;;;-2.76;71.83;102128.58;1873057;76;21125;-68
2022/03/13 02:19:57;;;;;;;23.70;12.55;;;;;;;-2.76;71.78;102126.42;1872291;76;21052;-67
2022/03/13 02:22:26;;;;;;;15.93;8.83;;;;;;;-2.78;71.82;102127.65;1849151;76;21044;-67
2022/03/13 02:24:55;;;;;;;27.37;11.35;;;;;;;-2.82;71.84;102125.78;1842199;78;21490;-68
2022/03/13 02:27:25;;;;;;;23.60;10.65;;;;;;;-2.85;71.92;102129.52;1841903;78;21065;-69
2022/03/13 02:29:56;;;;;;;28.23;12.73;;;;;;;-2.86;71.94;102132.91;1841880;78;21099;-68
2022/03/13 02:32:25;;;;;;;22.10;9.73;;;;;;;-2.86;72.01;102130.33;1856830;76;21051;-67
2022/03/13 02:34:56;;;;;;;25.23;11.43;;;;;;;-2.84;71.97;102133.88;1873127;76;21117;-67
2022/03/13 02:37:39;;;;;;;21.62;10.88;;;;;;;-2.82;71.93;102128.36;1873216;76;21113;-67
2022/03/13 02:40:11;;;;;;;26.70;11.40;;;;;;;-2.82;71.87;102127.08;1873103;76;21051;-67
2022/03/13 02:42:39;;;;;;;18.20;9.65;;;;;;;-2.80;71.81;102127.14;1873163;76;21553;-68
2022/03/13 02:45:09;;;;;;;18.87;9.03;;;;;;;-2.82;71.82;102127.46;1873086;76;21043;-66
2022/03/13 02:47:37;;;;;;;12.80;6.75;;;;;;;-2.87;71.94;102127.72;1849445;76;21061;-66
2022/03/13 02:50:07;;;;;;;18.12;7.05;;;;;;;-2.89;71.96;102131.52;1841903;78;21531;-67
2022/03/13 02:52:36;;;;;;;16.67;7.15;;;;;;;-2.94;71.94;102118.86;1841842;78;21104;-66
2022/03/13 02:55:06;;;;;;;13.58;8.28;;;;;;;-2.93;72.01;102133.52;1842279;76;21068;-67
2022/03/13 02:57:35;;;;;;;33.50;12.98;;;;;;;-2.97;72.04;102127.75;1841965;78;21064;-68
2022/03/13 03:00:05;;;;;;;20.23;9.98;;;;;;;-2.99;72.02;102125.53;1841928;78;21068;-68
2022/03/13 03:02:34;;;;;;;19.50;9.70;;;;;;;-2.98;72.03;102125.59;1841911;78;21139;-68
2022/03/13 03:05:07;;;;;;;30.88;12.93;;;;;;;-2.98;71.96;102126.02;1841804;78;21135;-63
2022/03/13 03:07:38;;;;;;;24.43;11.93;;;;;;;-2.98;72.02;102129.46;1842158;78;21064;-65
2022/03/13 03:10:08;;;;;;;24.20;9.98;;;;;;;-2.96;71.97;102126.53;1841779;77;21065;-63
2022/03/13 03:12:37;;;;;;;22.22;9.23;;;;;;;-2.95;71.93;102124.44;1841889;78;21538;-63
2022/03/13 03:15:07;;;;;;;25.12;9.85;;;;;;;-3.01;72.05;102123.30;1818328;76;21140;-65
2022/03/13 03:17:35;;;;;;;25.77;10.65;;;;;;;-3.04;72.03;102120.59;1825679;78;21078;-67
2022/03/13 03:20:05;;;;;;;11.30;5.80;;;;;;;-3.04;72.03;102120.59;1826492;77;21193;-67
2022/03/13 03:22:34;;;;;;;26.10;13.35;;;;;;;-3.05;72.19;102131.33;1826606;78;21145;-65
2022/03/13 03:25:03;;;;;;;32.80;13.65;;;;;;;-3.05;72.18;102133.03;1826523;78;21067;-70
2022/03/13 03:27:32;;;;;;;35.17;17.17;;;;;;;-3.03;72.13;102127.52;1826494;78;21070;-66
2022/03/13 03:30:01;;;;;;;30.48;14.23;;;;;;;-3.01;72.38;102133.61;1833410;78;21086;-70
2022/03/13 03:32:29;;;;;;;29.25;14.40;;;;;;;-3.03;72.06;102127.11;1850326;77;21047;-68
2022/03/13 03:34:58;;;;;;;25.05;11.70;;;;;;;-3.03;72.06;102127.11;1865433;77;21043;-70
2022/03/13 03:37:27;;;;;;;32.50;13.98;;;;;;;-2.98;72.03;102135.03;1865471;77;21016;-70
2022/03/13 03:39:55;;;;;;;34.83;13.08;;;;;;;-2.97;71.97;102134.20;1838010;77;21042;-71
2022/03/13 03:42:35;;;;;;;28.40;14.23;;;;;;;-3.02;71.88;102121.56;1826359;78;21103;-70
2022/03/13 03:45:19;;;;;;;;;;;;;;;;;;;;;
2022/03/13 03:47:47;;;;;;;26.93;11.35;;;;;;;-2.94;71.90;102140.77;1822326;78;21077;-69
2022/03/13 03:50:16;;;;;;;30.12;12.37;;;;;;;-2.98;71.92;102153.94;1834066;77;21172;-67
2022/03/13 03:52:45;;;;;;;21.15;10.28;;;;;;;-3.02;72.32;102146.05;1834207;78;21091;-68
2022/03/13 03:55:15;;;;;;;30.45;13.03;;;;;;;-3.02;72.05;102146.92;1834251;78;21071;-66
2022/03/13 03:57:44;;;;;;;34.38;15.58;;;;;;;-3.03;72.03;102141.70;1834433;78;21510;-65
2022/03/13 04:00:14;;;;;;;35.30;15.20;;;;;;;-3.01;72.04;102142.22;1833360;77;21473;-67
2022/03/13 04:02:43;;;;;;;27.80;11.97;;;;;;;-3.01;72.14;102146.08;1826575;78;21039;-67
2022/03/13 04:05:12;;;;;;;34.78;12.90;;;;;;;-2.96;72.12;102150.14;1826517;78;21582;-67
2022/03/13 04:07:41;;;;;;;30.30;14.80;;;;;;;-2.94;72.05;102154.94;1826462;78;21142;-64
2022/03/13 04:10:11;;;;;;;24.27;11.18;;;;;;;-2.97;72.18;102157.39;1830176;77;21523;-65
2022/03/13 04:12:39;;;;;;;26.37;12.70;;;;;;;-2.94;72.33;102159.68;1834715;78;21465;-66
2022/03/13 04:15:09;;;;;;;30.50;15.25;;;;;;;-2.94;72.33;102159.68;1834372;78;21035;-67
2022/03/13 04:17:41;;;;;;;38.63;16.42;;;;;;;-2.89;72.16;102157.30;1834367;78;21063;-64
2022/03/13 04:20:10;;;;;;;24.37;13.08;;;;;;;-2.82;72.09;102167.03;1834289;78;21462;-68
2022/03/13 04:22:39;;;;;;;25.95;13.40;;;;;;;-2.77;72.03;102169.35;1833541;78;21036;-69
2022/03/13 04:25:08;;;;;;;11.28;7.40;;;;;;;-2.79;72.13;102173.57;1834543;78;21172;-68
2022/03/13 04:27:37;;;;;;;32.50;14.15;;;;;;;-2.87;72.20;102167.25;1834535;78;21125;-67
2022/03/13 04:30:08;;;;;;;15.30;7.22;;;;;;;-2.87;72.20;102167.25;1834240;78;21125;-66
2022/03/13 04:32:36;;;;;;;32.70;12.85;;;;;;;-2.86;72.40;102181.88;1836000;77;21039;-67
2022/03/13 04:35:05;;;;;;;23.98;10.32;;;;;;;-2.83;72.31;102177.28;1834285;78;21130;-67
2022/03/13 04:37:34;;;;;;;14.03;7.90;;;;;;;-2.82;72.35;102182.88;1834390;78;21055;-66
2022/03/13 04:40:05;;;;;;;17.42;7.83;;;;;;;-2.80;72.30;102178.28;1834339;78;21161;-65
2022/03/13 04:42:37;;;;;;;37.03;16.70;;;;;;;-2.66;72.31;102185.66;1833549;78;21043;-65
2022/03/13 04:45:07;;;;;;;18.15;9.45;;;;;;;-2.66;72.31;102185.66;1834560;78;21506;-65
2022/03/13 04:47:36;;;;;;;22.85;12.05;;;;;;;-2.66;72.09;102193.39;1834398;78;21059;-67
2022/03/13 04:50:05;;;;;;;26.87;13.75;;;;;;;-2.70;72.22;102193.68;1834306;78;21153;-66
2022/03/13 04:52:34;;;;;;;26.23;12.07;;;;;;;-2.65;72.24;102196.45;1831579;78;21105;-66
2022/03/13 04:55:03;;;;;;;28.65;12.73;;;;;;;-2.57;72.15;102192.45;1826442;78;21169;-66
2022/03/13 04:57:32;;;;;;;34.03;14.53;;;;;;;-2.46;72.04;102191.58;1826435;77;21150;-66
2022/03/13 05:00:00;;;;;;;28.85;12.70;;;;;;;-2.38;71.88;102209.11;1846812;77;21003;-66
2022/03/13 05:02:29;;;;;;;26.42;13.00;;;;;;;-2.33;71.82;102199.81;1865467;77;21163;-67
2022/03/13 05:04:59;;;;;;;22.52;11.45;;;;;;;-2.16;71.63;102194.40;1865635;77;21515;-67
2022/03/13 05:07:28;;;;;;;33.70;14.90;;;;;;;-2.10;71.16;102204.97;1865515;77;21470;-69
2022/03/13 05:09:57;;;;;;;30.45;14.28;;;;;;;-2.02;71.34;102212.56;1862615;77;21126;-69
2022/03/13 05:12:27;;;;;;;11.08;6.62;;;;;;;-1.89;71.27;102216.89;1865398;77;21115;-68
2022/03/13 05:14:56;;;;;;;30.20;12.25;;;;;;;-1.83;71.13;102216.67;1865413;77;21548;-66
2022/03/13 05:17:24;;;;;;;28.77;13.50;;;;;;;-1.77;70.92;102214.72;1867412;76;21091;-63
2022/03/13 05:19:53;;;;;;;31.90;13.60;;;;;;;-1.69;70.86;102217.17;1865031;76;21193;-66
2022/03/13 05:22:22;;;;;;;26.65;12.10;;;;;;;-1.56;70.78;102224.94;1811468;79;21082;-65
2022/03/13 05:24:51;;;;;;;30.05;12.37;;;;;;;-1.48;70.58;102227.78;1811365;79;21146;-65
2022/03/13 05:27:20;;;;;;;18.85;9.93;;;;;;;-1.42;70.37;102237.02;1827017;76;21031;-65
2022/03/13 05:29:49;;;;;;;30.25;14.30;;;;;;;-1.38;70.40;102228.58;1873011;76;21091;-65
2022/03/13 05:32:18;;;;;;;28.85;13.95;;;;;;;-1.33;70.43;102237.34;1873000;76;21579;-65
2022/03/13 05:34:47;;;;;;;33.05;14.70;;;;;;;-1.24;70.45;102242.81;1873034;76;21082;-65
2022/03/13 05:37:16;;;;;;;36.90;16.07;;;;;;;-1.12;70.42;102245.38;1871251;76;21048;-65
2022/03/13 05:39:45;;;;;;;25.32;11.10;;;;;;;-1.06;70.42;102237.80;1813286;76;21053;-65
2022/03/13 05:42:13;;;;;;;30.72;14.00;;;;;;;-0.97;70.20;102240.69;1811505;79;21055;-68
2022/03/13 05:44:42;;;;;;;24.52;10.93;;;;;;;-0.94;69.91;102240.80;1818809;76;21193;-66
2022/03/13 05:47:10;;;;;;;37.83;14.23;;;;;;;-0.85;69.67;102243.69;1873000;76;21047;-67
2022/03/13 05:49:39;;;;;;;34.08;14.93;;;;;;;-0.76;69.57;102246.09;1872951;76;21051;-68
2022/03/13 05:52:08;;;;;;;27.73;12.73;;;;;;;-0.68;69.42;102248.48;1855116;76;21047;-66
2022/03/13 05:54:36;;;;;;;27.77;12.05;;;;;;;-0.64;69.24;102246.48;1811501;79;21141;-66
2022/03/13 05:57:06;;;;;;;21.12;11.00;;;;;;;-0.59;69.13;102252.65;1811507;79;21027;-66
2022/03/13 05:59:35;;;;;;;26.45;13.62;;;;;;;-0.59;68.96;102252.65;1811633;79;21027;-66
2022/03/13 06:02:05;;;;;;;32.17;12.98;;;;;;;-0.56;68.99;102254.48;1819246;76;21225;-67
2022/03/13 06:04:37;;;;;;;30.65;13.35;;;;;;;-0.54;68.93;102257.56;1873099;76;21054;-68
2022/03/13 06:07:11;;;;;;;33.90;14.90;;;;;;;-0.54;68.89;102258.86;1848947;76;21086;-66
2022/03/13 06:09:39;;;;;;;29.65;10.88;;;;;;;-0.53;68.91;102268.39;1819574;76;21047;-70
2022/03/13 06:12:09;;;;;;;28.70;11.55;;;;;;;-0.49;69.01;102267.64;1811489;79;21055;-67
2022/03/13 06:14:39;;;;;;;31.10;14.00;;;;;;;-0.51;68.81;102264.14;1811705;79;21055;-71
2022/03/13 06:17:08;;;;;;;21.68;12.07;;;;;;;-0.54;68.67;102267.05;1811478;79;21063;-70
2022/03/13 06:19:39;;;;;;;23.73;10.45;;;;;;;-0.58;68.64;102267.36;1869832;76;21075;-67
2022/03/13 06:22:06;;;;;;;32.67;14.20;;;;;;;-0.62;68.65;102271.98;1872936;76;21125;-67
2022/03/13 06:24:35;;;;;;;29.77;13.75;;;;;;;-0.59;68.58;102277.23;1872997;76;21043;-66
2022/03/13 06:27:10;;;;;;;28.30;12.73;;;;;;;-0.50;68.58;102280.53;1872910;76;21047;-69
2022/03/13 06:29:37;;;;;;;20.17;9.77;;;;;;;-0.50;68.43;102284.02;1871809;76;21164;-67
2022/03/13 06:32:07;;;;;;;23.75;11.93;;;;;;;-0.49;68.25;102283.17;1872707;76;21478;-63
2022/03/13 06:34:37;;;;;;;32.15;13.58;;;;;;;-0.50;68.23;102286.61;1868012;76;21473;-65
2022/03/13 06:37:08;;;;;;;31.48;16.32;;;;;;;-0.47;68.31;102291.86;1872947;76;21044;-65
2022/03/13 06:39:37;;;;;;;33.25;14.05;;;;;;;-0.41;68.39;102289.88;1873005;76;21024;-66
2022/03/13 06:42:06;;;;;;;28.85;13.45;;;;;;;-0.31;68.32;102284.59;1872970;76;21192;-62
2022/03/13 06:44:35;;;;;;;27.30;11.43;;;;;;;-0.27;68.29;102284.70;1868665;76;21107;-64
2022/03/13 06:47:04;;;;;;;27.00;12.07;;;;;;;-0.17;68.26;102287.16;1868784;76;21120;-67
2022/03/13 06:49:33;;;;;;;18.37;9.00;;;;;;;-0.10;68.12;102290.39;1820788;76;21082;-67
2022/03/13 06:52:02;;;;;;;11.22;6.97;;;;;;;-0.08;67.96;102288.72;1811505;78;21063;-67
2022/03/13 06:54:31;;;;;;;18.10;8.38;;;;;;;0.06;67.88;102285.68;1811395;79;21123;-68
2022/03/13 06:57:00;;;;;;;21.48;9.88;;;;;;;0.38;67.75;102287.45;1811546;79;21044;-67
2022/03/13 06:59:28;;;;;;;15.25;7.05;;;;;;;0.81;67.31;102290.31;1815690;76;21054;-70
2022/03/13 07:01:57;;;;;;;18.98;8.70;;;;;;;1.24;66.67;102287.95;1811519;79;21059;-66
2022/03/13 07:04:26;;;;;;;10.00;5.60;;;;;;;1.48;66.06;102287.22;1811457;79;21083;-68
2022/03/13 07:06:55;;;;;;;17.52;7.78;;;;;;;1.70;65.37;102285.13;1811359;79;21098;-67
2022/03/13 07:09:23;;;;;;;21.35;8.75;;;;;;;1.80;64.88;102289.66;1835959;76;21078;-67
2022/03/13 07:11:52;;;;;;;14.10;8.08;;;;;;;1.91;64.56;102289.47;1872961;76;21189;-66
2022/03/13 07:14:36;;;;;;;;;;;;;;;;;;;;;
2022/03/13 07:17:16;;;;;;;15.58;9.33;;;;;;;2.09;64.01;102295.91;1874437;76;21087;-67
2022/03/13 07:19:45;;;;;;;14.53;8.65;;;;;;;2.22;63.79;102286.22;1864708;76;21114;-66
2022/03/13 07:22:16;;;;;;;17.87;10.08;;;;;;;2.34;63.46;102290.77;1865538;77;21133;-68
2022/03/13 07:24:50;;;;;;;22.40;10.38;;;;;;;2.41;63.37;102295.68;1865327;77;21494;-74
2022/03/13 07:27:16;;;;;;;19.65;9.75;;;;;;;2.54;62.92;102296.36;1862038;77;21043;-65
2022/03/13 07:29:45;;;;;;;13.15;5.90;;;;;;;2.66;62.64;102298.34;1862977;77;21105;-66
2022/03/13 07:32:13;;;;;;;14.45;6.78;;;;;;;3.40;61.47;102298.30;1865500;77;21064;-66
2022/03/13 07:34:42;;;;;;;22.27;8.53;;;;;;;3.32;60.65;102298.59;1865568;77;21610;-66
2022/03/13 07:37:11;;;;;;;11.43;6.25;;;;;;;2.93;60.46;102296.64;1856581;77;21063;-67
2022/03/13 07:39:41;;;;;;;11.12;5.85;;;;;;;2.61;60.57;102299.53;1826510;78;21197;-66
2022/03/13 07:42:10;;;;;;;11.83;6.08;;;;;;;2.35;60.77;102300.77;1842391;77;21092;-66
2022/03/13 07:44:39;;;;;;;11.55;5.60;;;;;;;2.25;61.22;102304.48;1857017;77;21067;-67
2022/03/13 07:47:08;;;;;;;16.02;5.83;;;;;;;2.28;61.63;102303.66;1857049;77;21043;-66
2022/03/13 07:49:37;;;;;;;18.05;8.58;;;;;;;2.27;61.50;102309.29;1857073;77;21023;-67
2022/03/13 07:52:07;;;;;;;14.85;7.17;;;;;;;2.13;61.18;102313.31;1857059;77;21054;-67
2022/03/13 07:54:36;;;;;;;15.40;8.20;;;;;;;1.99;60.91;102312.14;1859822;77;21030;-69
2022/03/13 07:57:05;;;;;;;6.85;3.90;;;;;;;1.87;60.93;102314.93;1862964;77;21105;-69
2022/03/13 07:59:33;;;;;;;16.90;7.33;;;;;;;1.74;60.66;102317.67;1804543;79;21110;-68
2022/03/13 08:02:02;;;;;;;11.68;6.53;;;;;;;1.72;60.88;102327.58;1810123;77;21132;-67
2022/03/13 08:04:31;;;;;;;12.28;7.03;;;;;;;1.75;61.02;102323.73;1826629;78;21082;-68
2022/03/13 08:06:59;;;;;;;14.30;7.65;;;;;;;1.80;61.04;102326.02;1826516;78;21094;-69
2022/03/13 08:09:28;;;;;;;9.80;5.65;;;;;;;1.91;60.96;102328.44;1826385;78;21207;-66
2022/03/13 08:11:57;;;;;;;12.07;7.10;;;;;;;2.08;61.02;102324.03;1827032;77;21135;-67
2022/03/13 08:14:26;;;;;;;16.37;8.20;;;;;;;2.21;60.98;102331.66;1865554;77;21118;-70
2022/03/13 08:16:56;;;;;;;16.27;9.23;;;;;;;2.33;60.85;102321.53;1865362;77;21079;-66
2022/03/13 08:19:25;;;;;;;13.38;7.20;;;;;;;2.49;61.02;102324.00;1865423;76;21083;-66
2022/03/13 08:21:54;;;;;;;14.95;7.10;;;;;;;2.72;60.82;102324.89;1865353;77;21538;-67
2022/03/13 08:24:23;;;;;;;15.83;7.10;;;;;;;3.08;60.42;102325.55;1831317;77;21066;-69
2022/03/13 08:26:51;;;;;;;13.83;6.92;;;;;;;3.51;59.62;102333.19;1826459;77;21099;-66
2022/03/13 08:29:22;;;;;;;12.73;6.10;;;;;;;3.76;59.01;102330.55;1826491;77;21123;-67
2022/03/13 08:31:51;;;;;;;13.20;7.28;;;;;;;4.02;58.09;102329.60;1826580;78;21479;-68
2022/03/13 08:34:19;;;;;;;13.28;8.33;;;;;;;4.50;58.05;102334.11;1829695;77;21045;-66
2022/03/13 08:36:49;;;;;;;12.45;7.12;;;;;;;4.76;57.48;102340.92;1846091;77;21087;-66
2022/03/13 08:39:17;;;;;;;13.05;6.83;;;;;;;4.92;57.12;102331.94;1832373;78;21589;-67
2022/03/13 08:41:46;;;;;;;12.98;7.03;;;;;;;4.97;56.89;102333.73;1854117;77;21019;-65
2022/03/13 08:44:15;;;;;;;14.28;6.60;;;;;;;4.77;56.57;102338.74;1857067;77;21071;-65
2022/03/13 08:46:43;;;;;;;12.20;6.37;;;;;;;4.74;56.55;102334.81;1857146;77;21101;-65
2022/03/13 08:49:13;;;;;;;15.03;6.62;;;;;;;4.87;55.98;102331.91;1857062;77;21039;-68
2022/03/13 08:51:41;;;;;;;14.43;6.37;;;;;;;4.98;55.83;102328.06;1857031;77;21556;-68
2022/03/13 08:54:10;;;;;;;13.72;7.85;;;;;;;5.03;55.88;102331.60;1835024;76;21047;-68
2022/03/13 08:56:39;;;;;;;13.70;7.65;;;;;;;5.18;55.63;102334.78;1834243;78;21128;-65
2022/03/13 08:59:07;;;;;;;13.80;7.87;;;;;;;5.13;55.72;102332.59;1834332;78;21125;-67
2022/03/13 09:01:36;;;;;;;14.87;7.15;;;;;;;4.86;55.66;102337.97;1834406;78;21067;-68
2022/03/13 09:04:05;;;;;;;12.50;6.28;;;;;;;4.77;55.53;102336.57;1834309;78;21079;-65
2022/03/13 09:06:34;;;;;;;14.20;7.03;;;;;;;4.56;55.10;102334.17;1834367;78;21102;-69
2022/03/13 09:09:03;;;;;;;14.13;6.87;;;;;;;4.30;55.12;102335.58;1834310;78;21083;-69
2022/03/13 09:11:34;;;;;;;12.20;6.58;;;;;;;4.20;55.65;102334.16;1834279;78;21501;-69
2022/03/13 09:14:03;;;;;;;9.18;4.55;;;;;;;4.10;56.08;102329.70;1834202;78;21032;-66
2022/03/13 09:16:35;;;;;;;12.40;6.70;;;;;;;4.09;55.89;102333.14;1834267;78;21529;-67
2022/03/13 09:19:04;;;;;;;10.48;5.62;;;;;;;3.95;55.81;102336.88;1834404;78;21619;-64
2022/03/13 09:21:34;;;;;;;11.43;6.47;;;;;;;4.03;55.98;102331.77;1839827;77;21108;-64
2022/03/13 09:24:03;;;;;;;12.53;6.87;;;;;;;4.06;55.79;102337.91;1841977;78;21495;-66
2022/03/13 09:26:34;;;;;;;13.75;7.12;;;;;;;4.08;55.57;102331.41;1841730;78;21053;-69
2022/03/13 09:29:03;;;;;;;12.35;6.58;;;;;;;4.14;55.42;102333.22;1833506;78;21152;-68
2022/03/13 09:31:33;;;;;;;11.00;6.28;;;;;;;4.23;55.33;102333.34;1811621;78;21055;-67
2022/03/13 09:34:01;;;;;;;13.88;6.97;;;;;;;4.34;55.49;102333.48;1811553;79;21055;-70
2022/03/13 09:36:30;;;;;;;8.63;5.25;;;;;;;4.24;55.30;102329.86;1818126;78;21146;-65
2022/03/13 09:38:59;;;;;;;12.00;6.47;;;;;;;4.17;55.22;102335.84;1840542;76;21142;-68
2022/03/13 09:41:29;;;;;;;11.60;6.40;;;;;;;4.07;54.93;102332.25;1825567;76;21079;-70
2022/03/13 09:43:57;;;;;;;15.08;7.50;;;;;;;3.95;54.69;102328.20;1840494;78;21105;-68
2022/03/13 09:46:26;;;;;;;15.53;7.80;;;;;;;4.00;54.79;102327.81;1841873;78;21060;-68
2022/03/13 09:48:56;;;;;;;11.80;6.70;;;;;;;4.16;54.60;102331.07;1841829;78;21195;-68
2022/03/13 09:51:30;;;;;;;14.33;7.40;;;;;;;4.54;54.48;102331.98;1841608;78;21124;-71
2022/03/13 09:54:02;;;;;;;13.85;6.92;;;;;;;5.10;54.13;102331.24;1815917;78;21494;-64
2022/03/13 09:56:33;;;;;;;12.95;7.55;;;;;;;5.39;53.01;102325.83;1815103;76;21055;-64
2022/03/13 09:59:00;;;;;;;11.35;7.42;;;;;;;6.11;52.26;102318.91;1841731;77;21060;-64
2022/03/13 10:01:29;;;;;;;13.10;7.70;;;;;;;6.93;51.40;102316.12;1841861;78;21138;-66
2022/03/13 10:03:58;;;;;;;16.27;8.05;;;;;;;7.32;50.79;102313.50;1843183;76;21073;-64
2022/03/13 10:06:29;;;;;;;12.28;5.80;;;;;;;7.54;49.85;102314.36;1841870;78;21088;-69
2022/03/13 10:08:57;;;;;;;11.08;6.47;;;;;;;7.46;49.55;102313.50;1841931;78;21037;-68
2022/03/13 10:11:34;;;;;;;11.68;6.75;;;;;;;7.27;49.62;102314.83;1828348;76;21120;-62
2022/03/13 10:14:10;;;;;;;12.43;6.50;;;;;;;7.17;49.54;102322.23;1834063;76;21043;-64
2022/03/13 10:16:41;;;;;;;13.10;7.28;;;;;;;7.01;49.79;102317.44;1840936;76;21052;-65
2022/03/13 10:19:17;;;;;;;9.63;6.40;;;;;;;6.87;49.99;102318.72;1810546;79;21160;-66
2022/03/13 10:22:08;;;;;;;10.85;5.37;;;;;;;6.94;49.98;102313.06;1810216;79;21079;-64
2022/03/13 10:24:42;;;;;;;10.95;6.62;;;;;;;6.82;50.17;102316.52;1816442;78;21061;-67
2022/03/13 10:27:21;;;;;;;11.18;5.83;;;;;;;6.53;50.55;102313.41;1817300;79;21509;-67
2022/03/13 10:29:50;;;;;;;12.70;6.67;;;;;;;6.33;50.34;102313.78;1818751;79;21055;-66
2022/03/13 10:32:20;;;;;;;12.10;6.40;;;;;;;5.92;50.61;102313.10;1818770;79;21137;-67
2022/03/13 10:35:01;;;;;;;11.85;6.67;;;;;;;5.67;51.13;102316.02;1818782;79;21055;-68
2022/03/13 10:37:35;;;;;;;15.80;9.03;;;;;;;5.54;51.75;102317.23;1818653;79;21121;-64
2022/03/13 10:40:12;;;;;;;14.70;8.60;;;;;;;5.47;51.72;102317.18;1818694;79;21071;-64
2022/03/13 10:42:48;;;;;;;12.58;8.28;;;;;;;5.58;51.23;102312.46;1818554;79;21125;-63
2022/03/13 10:45:37;;;;;;;16.97;8.73;;;;;;;5.87;50.68;102307.00;1818034;79;21067;-63
2022/03/13 10:48:30;;;;;;;13.18;7.83;;;;;;;5.88;50.62;102310.03;1818652;79;21091;-63
2022/03/13 10:51:01;;;;;;;14.25;8.65;;;;;;;5.80;50.59;102306.94;1818739;79;21122;-63
2022/03/13 10:53:31;;;;;;;15.65;8.58;;;;;;;6.04;50.66;102308.42;1818613;79;21083;-63
2022/03/13 10:56:11;;;;;;;18.52;9.03;;;;;;;6.25;50.47;102299.78;1817692;77;21525;-70
2022/03/13 10:58:41;;;;;;;15.65;8.00;;;;;;;6.44;50.50;102302.05;1826305;77;21066;-66
2022/03/13 11:01:16;;;;;;;15.05;8.30;;;;;;;6.52;50.04;102300.31;1855583;77;21043;-66
2022/03/13 11:03:51;;;;;;;17.27;8.85;;;;;;;6.67;49.90;102295.11;1826591;77;21123;-68
2022/03/13 11:06:21;;;;;;;15.05;7.80;;;;;;;6.76;50.02;102298.19;1820603;77;21102;-64
2022/03/13 11:08:53;;;;;;;20.08;9.48;;;;;;;6.72;49.91;102301.67;1846215;77;21145;-68
2022/03/13 11:11:25;;;;;;;15.08;8.75;;;;;;;6.59;49.98;102299.47;1849345;77;21054;-66
2022/03/13 11:13:59;;;;;;;15.23;8.35;;;;;;;6.62;49.43;102299.48;1848960;77;21144;-71
2022/03/13 11:16:30;;;;;;;17.15;7.55;;;;;;;6.59;49.57;102300.77;1789433;77;21063;-65
2022/03/13 11:19:03;;;;;;;16.32;8.08;;;;;;;6.57;49.65;102298.59;1788936;79;21156;-70
2022/03/13 11:21:32;;;;;;;19.45;9.55;;;;;;;6.55;49.41;102299.03;1795800;78;21088;-65
2022/03/13 11:24:01;;;;;;;16.37;9.55;;;;;;;6.23;49.38;102300.22;1832912;78;21538;-62
2022/03/13 11:26:31;;;;;;;19.77;9.68;;;;;;;5.97;50.08;102307.50;1833000;78;21056;-65
2022/03/13 11:29:00;;;;;;;17.70;9.30;;;;;;;5.98;50.53;102301.42;1832856;78;21565;-63
2022/03/13 11:31:40;;;;;;;19.52;10.25;;;;;;;6.03;51.07;102303.63;1832762;78;21482;-62